createdAt,value
2023-02-03T00:01:47.989Z,94716.00
2023-02-03T00:05:53.068Z,94708.00
2023-02-03T00:09:57.297Z,94703.00
2023-02-03T00:14:14.204Z,94703.00
2023-02-03T00:18:19.068Z,94705.00
2023-02-03T00:22:23.952Z,94706.00
2023-02-03T00:33:18.624Z,94692.00
2023-02-03T00:37:24.613Z,94663.00
2023-02-03T00:41:31.147Z,94664.00
2023-02-03T00:45:34.708Z,94658.00
2023-02-03T00:50:04.241Z,94692.00
2023-02-03T00:54:09.375Z,94666.00
2023-02-03T00:58:14.094Z,94678.00
2023-02-03T01:02:18.220Z,94682.00
2023-02-03T01:06:25.808Z,94663.00
2023-02-03T01:10:32.436Z,94689.00
2023-02-03T01:14:38.366Z,94669.00
2023-02-03T01:18:47.514Z,94691.00
2023-02-03T01:22:51.154Z,94679.00
2023-02-03T01:26:56.176Z,94666.00
2023-02-03T01:30:59.813Z,94656.00
2023-02-03T01:35:17.064Z,94647.00
2023-02-03T01:39:20.652Z,94659.00
2023-02-03T01:49:33.514Z,94651.00
2023-02-03T01:53:39.372Z,94641.00
2023-02-03T01:58:01.367Z,94643.00
2023-02-03T02:02:06.574Z,94638.00
2023-02-03T02:06:12.901Z,94633.00
2023-02-03T02:10:16.931Z,94645.00
2023-02-03T02:14:26.598Z,94628.00
2023-02-03T02:18:52.383Z,94616.00
2023-02-03T02:23:33.401Z,94587.00
2023-02-03T02:28:14.574Z,94602.00
2023-02-03T02:32:32.476Z,94589.00
2023-02-03T02:36:45.804Z,94584.00
2023-02-03T02:45:19.500Z,94588.00
2023-02-03T02:49:37.333Z,94566.00
2023-02-03T02:53:48.355Z,94563.00
2023-02-03T02:57:55.226Z,94569.00
2023-02-03T03:02:33.195Z,94556.00
2023-02-03T03:11:27.957Z,94541.00
2023-02-03T03:15:36.588Z,94514.00
2023-02-03T03:19:43.382Z,94528.00
2023-02-03T03:24:16.333Z,94519.00
2023-02-03T03:28:35.753Z,94500.00
2023-02-03T03:32:40.337Z,94505.00
2023-02-03T03:36:49.052Z,94494.00
2023-02-03T03:41:01.693Z,94500.00
2023-02-03T03:45:09.164Z,94491.00
2023-02-03T03:49:14.475Z,94489.00
2023-02-03T03:53:22.728Z,94486.00
2023-02-03T03:57:31.352Z,94457.00
2023-02-03T04:01:35.026Z,94488.00
2023-02-03T04:05:40.693Z,94459.00
2023-02-03T04:09:48.751Z,94474.00
2023-02-03T04:13:53.712Z,94459.00
2023-02-03T04:17:57.844Z,94452.00
2023-02-03T04:22:01.306Z,94456.00
2023-02-03T04:26:10.125Z,94446.00
2023-02-03T04:30:18.439Z,94436.00
2023-02-03T04:34:22.942Z,94437.00
2023-02-03T04:38:27.532Z,94428.00
2023-02-03T04:42:31.060Z,94448.00
2023-02-03T04:46:37.301Z,94425.00
2023-02-03T04:50:40.708Z,94414.00
2023-02-03T04:55:14.065Z,94437.00
2023-02-03T04:59:17.397Z,94424.00
2023-02-03T05:03:27.945Z,94427.00
2023-02-03T05:07:31.480Z,94402.00
2023-02-03T05:11:59.892Z,94446.00
2023-02-03T05:16:03.154Z,94440.00
2023-02-03T05:20:09.427Z,94451.00
2023-02-03T05:24:13.051Z,94438.00
2023-02-03T05:28:16.654Z,94422.00
2023-02-03T05:32:20.069Z,94437.00
2023-02-03T05:36:35.423Z,94439.00
2023-02-03T05:45:19.574Z,94443.00
2023-02-03T05:49:25.786Z,94436.00
2023-02-03T05:53:32.258Z,94421.00
2023-02-03T05:58:45.048Z,94436.00
2023-02-03T06:02:52.927Z,94438.00
2023-02-03T06:07:26.076Z,94414.00
2023-02-03T06:11:31.462Z,94403.00
2023-02-03T06:15:38.380Z,94396.00
2023-02-03T06:19:44.194Z,94402.00
2023-02-03T06:23:47.752Z,94391.00
2023-02-03T06:27:53.227Z,94367.00
2023-02-03T06:31:57.756Z,94355.00
2023-02-03T06:36:30.017Z,94372.00
2023-02-03T06:40:33.523Z,94362.00
2023-02-03T06:44:38.440Z,94398.00
2023-02-03T06:48:45.268Z,94369.00
2023-02-03T06:52:51.398Z,94380.00
2023-02-03T06:57:52.482Z,94408.00
2023-02-03T07:01:57.423Z,94420.00
2023-02-03T07:06:05.874Z,94414.00
2023-02-03T07:10:10.595Z,94401.00
2023-02-03T07:14:16.325Z,94397.00
2023-02-03T07:18:47.276Z,94408.00
2023-02-03T07:23:13.787Z,94412.00
2023-02-03T07:27:17.346Z,94416.00
2023-02-03T07:31:23.686Z,94400.00
2023-02-03T07:35:28.968Z,94393.00
2023-02-03T07:39:57.962Z,94406.00
2023-02-03T07:44:01.513Z,94389.00
2023-02-03T07:48:10.606Z,94382.00
2023-02-03T07:52:17.481Z,94370.00
2023-02-03T07:56:22.205Z,94370.00
2023-02-03T08:00:27.518Z,94361.00
2023-02-03T08:04:58.276Z,94364.00
2023-02-03T08:09:03.396Z,94352.00
2023-02-03T08:13:10.342Z,94338.00
2023-02-03T08:17:14.339Z,94296.00
2023-02-03T08:21:18.085Z,94307.00
2023-02-03T08:25:32.584Z,94274.00
2023-02-03T08:29:36.073Z,94258.00
2023-02-03T08:33:57.910Z,94228.00
2023-02-03T08:38:01.730Z,94268.00
2023-02-03T08:42:09.718Z,94239.00
2023-02-03T08:46:14.733Z,94267.00
2023-02-03T08:50:19.980Z,94241.00
2023-02-03T08:54:24.405Z,94227.00
2023-02-03T08:59:00.354Z,94247.00
2023-02-03T09:03:04.903Z,94219.00
2023-02-03T09:12:37.832Z,94207.00
2023-02-03T09:16:48.026Z,94182.00
2023-02-03T09:21:02.624Z,94179.00
2023-02-03T09:25:10.062Z,94240.00
2023-02-03T09:29:33.106Z,94221.00
2023-02-03T09:33:55.844Z,94223.00
2023-02-03T09:39:02.931Z,94187.00
2023-02-03T09:43:23.742Z,94197.00
2023-02-03T09:47:54.215Z,94195.00
2023-02-03T09:52:06.440Z,94143.00
2023-02-03T09:56:29.106Z,94169.00
2023-02-03T10:05:12.800Z,94193.00
2023-02-03T10:09:33.019Z,94181.00
2023-02-03T10:18:53.815Z,94143.00
2023-02-03T10:23:01.378Z,94131.00
2023-02-03T10:27:56.552Z,94141.00
2023-02-03T10:32:01.768Z,94110.00
2023-02-03T10:36:20.098Z,94082.00
2023-02-03T10:40:26.575Z,94132.00
2023-02-03T10:44:42.031Z,94096.00
2023-02-03T10:48:47.737Z,94089.00
2023-02-03T10:53:29.192Z,94103.00
2023-02-03T10:57:32.660Z,94050.00
2023-02-03T11:02:38.678Z,94079.00
2023-02-03T11:07:03.095Z,94109.00
2023-02-03T11:11:10.286Z,94098.00
2023-02-03T11:15:23.833Z,94046.00
2023-02-03T11:19:28.670Z,94076.00
2023-02-03T11:23:35.742Z,94033.00
2023-02-03T11:28:48.122Z,94047.00
2023-02-03T11:32:53.152Z,94025.00
2023-02-03T11:36:57.257Z,93993.00
2023-02-03T11:41:05.496Z,93968.00
2023-02-03T11:45:32.025Z,94014.00
2023-02-03T11:55:47.278Z,93968.00
2023-02-03T12:00:17.568Z,94000.00
2023-02-03T12:04:36.051Z,93982.00
2023-02-03T12:13:59.717Z,93973.00
2023-02-03T12:24:07.065Z,93933.00
2023-02-03T12:28:33.176Z,93950.00
2023-02-03T12:32:41.652Z,93921.00
2023-02-03T12:36:50.089Z,93936.00
2023-02-03T12:41:00.886Z,93935.00
2023-02-03T12:45:19.982Z,93895.00
2023-02-03T12:49:36.942Z,93897.00
2023-02-03T12:53:45.367Z,93876.00
2023-02-03T12:57:57.857Z,93870.00
2023-02-03T13:02:30.541Z,93891.00
2023-02-03T13:06:57.193Z,93873.00
2023-02-03T13:11:21.503Z,93891.00
2023-02-03T13:15:29.800Z,93861.00
2023-02-03T13:19:47.390Z,93858.00
2023-02-03T13:23:51.832Z,93873.00
2023-02-03T13:28:30.534Z,93873.00
2023-02-03T13:33:22.260Z,93878.00
2023-02-03T13:37:40.003Z,93866.00
2023-02-03T13:42:02.969Z,93865.00
2023-02-03T13:46:09.123Z,93864.00
2023-02-03T13:50:23.989Z,93866.00
2023-02-03T13:54:32.371Z,93864.00
2023-02-03T13:58:39.788Z,93863.00
2023-02-03T14:02:46.374Z,93834.00
2023-02-03T14:12:46.353Z,93848.00
2023-02-03T14:16:53.367Z,93827.00
2023-02-03T14:21:38.423Z,93833.00
2023-02-03T14:25:45.469Z,93795.00
2023-02-03T14:30:09.250Z,93849.00
2023-02-03T14:34:16.622Z,93866.00
2023-02-03T14:38:34.041Z,93846.00
2023-02-03T14:43:12.840Z,93879.00
2023-02-03T14:47:29.146Z,93854.00
2023-02-03T14:52:22.395Z,93864.00
2023-02-03T14:57:08.916Z,93846.00
2023-02-03T15:01:49.296Z,93869.00
2023-02-03T15:06:01.213Z,93839.00
2023-02-03T15:10:05.034Z,93827.00
2023-02-03T15:14:22.518Z,93802.00
2023-02-03T15:18:39.935Z,93772.00
2023-02-03T15:22:44.676Z,93756.00
2023-02-03T15:27:00.429Z,93764.00
2023-02-03T15:31:08.099Z,93750.00
2023-02-03T15:35:32.093Z,93762.00
2023-02-03T15:40:14.525Z,93746.00
2023-02-03T15:44:28.402Z,93759.00
2023-02-03T15:48:37.203Z,93757.00
2023-02-03T15:52:56.265Z,93750.00
2023-02-03T15:57:19.305Z,93756.00
2023-02-03T16:01:26.848Z,93736.00
2023-02-03T16:05:33.945Z,93738.00
2023-02-03T16:09:41.764Z,93707.00
2023-02-03T16:13:46.704Z,93709.00
2023-02-03T16:18:24.221Z,93690.00
2023-02-03T16:27:20.979Z,93729.00
2023-02-03T16:31:44.239Z,93707.00
2023-02-03T16:45:37.329Z,93716.00
2023-02-03T16:50:07.282Z,93678.00
2023-02-03T16:54:14.343Z,93709.00
2023-02-03T16:58:19.396Z,93678.00
2023-02-03T17:02:22.752Z,93725.00
2023-02-03T17:06:51.410Z,93726.00
2023-02-03T17:10:55.006Z,93698.00
2023-02-03T17:14:59.477Z,93717.00
2023-02-03T17:19:04.159Z,93709.00
2023-02-03T17:23:09.676Z,93715.00
2023-02-03T17:27:20.382Z,93724.00
2023-02-03T17:31:24.000Z,93732.00
2023-02-03T17:35:46.326Z,93712.00
2023-02-03T17:57:20.900Z,93908.00
2023-02-03T18:01:30.225Z,93965.00
2023-02-03T18:05:34.082Z,93929.00
2023-02-03T18:15:14.352Z,93914.00
2023-02-03T18:19:17.919Z,93946.00
2023-02-03T18:23:21.413Z,93934.00
2023-02-03T18:27:24.732Z,93937.00
2023-02-03T18:31:57.235Z,93932.00
2023-02-03T18:36:01.746Z,93926.00
2023-02-03T18:40:20.945Z,93891.00
2023-02-03T18:44:27.242Z,93921.00
2023-02-03T18:48:33.667Z,93900.00
2023-02-03T18:52:37.860Z,93929.00
2023-02-03T18:56:42.456Z,93923.00
2023-02-03T19:00:45.820Z,93911.00
2023-02-03T19:04:50.666Z,93921.00
2023-02-03T19:08:54.356Z,93931.00
2023-02-03T19:13:18.306Z,93936.00
2023-02-03T19:17:23.464Z,93948.00
2023-02-03T19:21:28.444Z,93949.00
2023-02-03T19:25:56.325Z,93953.00
2023-02-03T19:29:59.636Z,93939.00
2023-02-03T19:34:04.093Z,93924.00
2023-02-03T19:38:08.865Z,93938.00
2023-02-03T19:42:13.416Z,93940.00
2023-02-03T19:46:16.846Z,93900.00
2023-02-03T19:50:23.948Z,93950.00
2023-02-03T19:54:33.133Z,93953.00
2023-02-03T19:58:38.716Z,93958.00
2023-02-03T20:03:38.532Z,93967.00
2023-02-03T20:07:41.867Z,93935.00
2023-02-03T20:11:56.507Z,93964.00
2023-02-03T20:16:01.809Z,93942.00
2023-02-03T20:20:05.943Z,93965.00
2023-02-03T20:24:34.898Z,93953.00
2023-02-03T20:28:40.228Z,93953.00
2023-02-03T20:32:44.714Z,93925.00
2023-02-03T20:36:48.897Z,93939.00
2023-02-03T20:40:53.636Z,93936.00
2023-02-03T20:44:58.586Z,93928.00
2023-02-03T20:49:03.106Z,93940.00
2023-02-03T20:53:14.110Z,93945.00
2023-02-03T20:57:19.748Z,93936.00
2023-02-03T21:01:38.066Z,93927.00
2023-02-03T21:05:43.142Z,93913.00
2023-02-03T21:10:12.605Z,93943.00
2023-02-03T21:14:20.971Z,93931.00
2023-02-03T21:18:36.128Z,93910.00
2023-02-03T21:22:39.384Z,93909.00
2023-02-03T21:26:49.738Z,93900.00
2023-02-03T21:30:54.011Z,93901.00
2023-02-03T21:35:03.182Z,93879.00
2023-02-03T21:39:27.072Z,93839.00
2023-02-03T21:43:30.658Z,93897.00
2023-02-03T21:47:37.830Z,93872.00
2023-02-03T21:51:42.755Z,93910.00
2023-02-03T21:55:48.384Z,93881.00
2023-02-03T21:59:51.811Z,93911.00
2023-02-03T22:04:00.168Z,93896.00
2023-02-03T22:08:29.963Z,93911.00
2023-02-03T22:12:33.186Z,93930.00
2023-02-03T22:16:40.949Z,93894.00
2023-02-03T22:20:44.644Z,93919.00
2023-02-03T22:24:49.440Z,93904.00
2023-02-03T22:29:12.435Z,93914.00
2023-02-03T22:33:15.772Z,93932.00
2023-02-03T22:37:33.328Z,93940.00
2023-02-03T22:41:38.209Z,93944.00
2023-02-03T22:45:41.584Z,93916.00
2023-02-03T22:50:36.366Z,93934.00
2023-02-03T22:54:40.027Z,93940.00
2023-02-03T22:59:05.202Z,93947.00
2023-02-03T23:03:08.568Z,93950.00
2023-02-03T23:07:12.866Z,93927.00
2023-02-03T23:11:16.193Z,93942.00
2023-02-03T23:15:30.695Z,93899.00
2023-02-03T23:19:36.378Z,93920.00
2023-02-03T23:23:40.524Z,93904.00
2023-02-03T23:27:46.341Z,93941.00
2023-02-03T23:31:51.450Z,93921.00
2023-02-03T23:36:13.384Z,93927.00
2023-02-03T23:40:17.037Z,93929.00
2023-02-03T23:44:32.996Z,93935.00
2023-02-03T23:48:37.760Z,93834.00
2023-02-03T23:52:45.271Z,93961.00
2023-02-03T23:56:48.728Z,93905.00
